sensor_id;sensor_type;location;lat;lon;timestamp;temperature;humidity
74661;SHT31;63191;39.566;2.654;2023-08-08T00:01:32;22.28;64.67
74661;SHT31;63191;39.566;2.654;2023-08-08T00:03:59;22.26;64.81
74661;SHT31;63191;39.566;2.654;2023-08-08T00:06:25;22.24;64.91
74661;SHT31;63191;39.566;2.654;2023-08-08T00:08:50;22.23;64.98
74661;SHT31;63191;39.566;2.654;2023-08-08T00:11:16;22.23;64.97
74661;SHT31;63191;39.566;2.654;2023-08-08T00:13:42;22.23;65.16
74661;SHT31;63191;39.566;2.654;2023-08-08T00:16:07;22.23;65.21
74661;SHT31;63191;39.566;2.654;2023-08-08T00:18:33;22.24;65.38
74661;SHT31;63191;39.566;2.654;2023-08-08T00:21:00;22.24;65.38
74661;SHT31;63191;39.566;2.654;2023-08-08T00:23:26;22.23;65.45
74661;SHT31;63191;39.566;2.654;2023-08-08T00:25:51;22.22;65.56
74661;SHT31;63191;39.566;2.654;2023-08-08T00:28:17;22.21;65.56
74661;SHT31;63191;39.566;2.654;2023-08-08T00:30:43;22.18;65.57
74661;SHT31;63191;39.566;2.654;2023-08-08T00:33:09;22.17;65.65
74661;SHT31;63191;39.566;2.654;2023-08-08T00:35:35;22.13;65.72
74661;SHT31;63191;39.566;2.654;2023-08-08T00:38:01;22.12;65.73
74661;SHT31;63191;39.566;2.654;2023-08-08T00:40:26;22.10;65.79
74661;SHT31;63191;39.566;2.654;2023-08-08T00:42:52;22.08;65.85
74661;SHT31;63191;39.566;2.654;2023-08-08T00:45:18;22.07;66.00
74661;SHT31;63191;39.566;2.654;2023-08-08T00:47:44;22.08;66.07
74661;SHT31;63191;39.566;2.654;2023-08-08T00:50:10;22.09;66.08
74661;SHT31;63191;39.566;2.654;2023-08-08T00:52:37;22.09;66.02
74661;SHT31;63191;39.566;2.654;2023-08-08T00:55:05;22.08;65.97
74661;SHT31;63191;39.566;2.654;2023-08-08T00:57:33;22.06;65.86
74661;SHT31;63191;39.566;2.654;2023-08-08T01:00:00;22.03;65.97
74661;SHT31;63191;39.566;2.654;2023-08-08T01:02:27;22.00;66.04
74661;SHT31;63191;39.566;2.654;2023-08-08T01:04:53;22.00;66.08
74661;SHT31;63191;39.566;2.654;2023-08-08T01:07:26;21.99;66.10
74661;SHT31;63191;39.566;2.654;2023-08-08T01:10:09;21.98;66.12
74661;SHT31;63191;39.566;2.654;2023-08-08T01:12:48;21.97;66.29
74661;SHT31;63191;39.566;2.654;2023-08-08T01:15:18;21.98;66.37
74661;SHT31;63191;39.566;2.654;2023-08-08T01:17:45;21.98;66.43
74661;SHT31;63191;39.566;2.654;2023-08-08T01:20:13;21.98;66.50
74661;SHT31;63191;39.566;2.654;2023-08-08T01:22:50;21.97;66.46
74661;SHT31;63191;39.566;2.654;2023-08-08T01:25:57;21.94;66.48
74661;SHT31;63191;39.566;2.654;2023-08-08T01:28:24;21.92;66.54
74661;SHT31;63191;39.566;2.654;2023-08-08T01:30:50;21.90;66.58
74661;SHT31;63191;39.566;2.654;2023-08-08T01:33:16;21.88;66.58
74661;SHT31;63191;39.566;2.654;2023-08-08T01:35:44;21.86;66.79
74661;SHT31;63191;39.566;2.654;2023-08-08T01:38:36;21.87;66.79
74661;SHT31;63191;39.566;2.654;2023-08-08T01:41:06;21.88;66.82
74661;SHT31;63191;39.566;2.654;2023-08-08T01:43:34;21.89;66.87
74661;SHT31;63191;39.566;2.654;2023-08-08T01:46:03;21.88;66.89
74661;SHT31;63191;39.566;2.654;2023-08-08T01:48:29;21.88;66.87
74661;SHT31;63191;39.566;2.654;2023-08-08T01:50:55;21.88;66.89
74661;SHT31;63191;39.566;2.654;2023-08-08T01:53:21;21.87;66.90
74661;SHT31;63191;39.566;2.654;2023-08-08T01:55:47;21.85;66.94
74661;SHT31;63191;39.566;2.654;2023-08-08T01:58:12;21.84;67.00
74661;SHT31;63191;39.566;2.654;2023-08-08T02:00:38;21.84;67.10
74661;SHT31;63191;39.566;2.654;2023-08-08T02:03:06;21.82;67.15
74661;SHT31;63191;39.566;2.654;2023-08-08T02:05:32;21.80;67.05
74661;SHT31;63191;39.566;2.654;2023-08-08T02:07:58;21.77;67.04
74661;SHT31;63191;39.566;2.654;2023-08-08T02:10:24;21.77;67.14
74661;SHT31;63191;39.566;2.654;2023-08-08T02:12:49;21.78;67.25
74661;SHT31;63191;39.566;2.654;2023-08-08T02:15:15;21.78;67.30
74661;SHT31;63191;39.566;2.654;2023-08-08T02:17:41;21.79;67.24
74661;SHT31;63191;39.566;2.654;2023-08-08T02:20:07;21.79;67.26
74661;SHT31;63191;39.566;2.654;2023-08-08T02:22:33;21.76;67.30
74661;SHT31;63191;39.566;2.654;2023-08-08T02:24:59;21.77;67.46
74661;SHT31;63191;39.566;2.654;2023-08-08T02:27:25;21.78;67.51
74661;SHT31;63191;39.566;2.654;2023-08-08T02:29:51;21.77;67.41
74661;SHT31;63191;39.566;2.654;2023-08-08T02:32:16;21.78;67.51
74661;SHT31;63191;39.566;2.654;2023-08-08T02:34:42;21.79;67.58
74661;SHT31;63191;39.566;2.654;2023-08-08T02:37:09;21.80;67.60
74661;SHT31;63191;39.566;2.654;2023-08-08T02:39:34;21.80;67.60
74661;SHT31;63191;39.566;2.654;2023-08-08T02:42:00;21.80;67.51
74661;SHT31;63191;39.566;2.654;2023-08-08T02:44:27;21.77;67.60
74661;SHT31;63191;39.566;2.654;2023-08-08T02:46:53;21.76;67.66
74661;SHT31;63191;39.566;2.654;2023-08-08T02:49:19;21.74;67.73
74661;SHT31;63191;39.566;2.654;2023-08-08T02:51:44;21.71;67.74
74661;SHT31;63191;39.566;2.654;2023-08-08T02:54:10;21.68;67.73
74661;SHT31;63191;39.566;2.654;2023-08-08T02:56:36;21.66;67.86
74661;SHT31;63191;39.566;2.654;2023-08-08T02:59:02;21.65;68.03
74661;SHT31;63191;39.566;2.654;2023-08-08T03:01:27;21.66;68.10
74661;SHT31;63191;39.566;2.654;2023-08-08T03:03:53;21.67;68.13
74661;SHT31;63191;39.566;2.654;2023-08-08T03:06:19;21.67;68.11
74661;SHT31;63191;39.566;2.654;2023-08-08T03:08:45;21.67;68.14
74661;SHT31;63191;39.566;2.654;2023-08-08T03:11:10;21.65;68.11
74661;SHT31;63191;39.566;2.654;2023-08-08T03:13:36;21.63;68.10
74661;SHT31;63191;39.566;2.654;2023-08-08T03:16:02;21.60;68.03
74661;SHT31;63191;39.566;2.654;2023-08-08T03:18:29;21.58;68.12
74661;SHT31;63191;39.566;2.654;2023-08-08T03:20:55;21.54;68.20
74661;SHT31;63191;39.566;2.654;2023-08-08T03:23:20;21.51;68.21
74661;SHT31;63191;39.566;2.654;2023-08-08T03:25:48;21.50;68.38
74661;SHT31;63191;39.566;2.654;2023-08-08T03:28:14;21.50;68.46
74661;SHT31;63191;39.566;2.654;2023-08-08T03:30:39;21.48;68.42
74661;SHT31;63191;39.566;2.654;2023-08-08T03:33:05;21.46;68.38
74661;SHT31;63191;39.566;2.654;2023-08-08T03:35:31;21.46;68.42
74661;SHT31;63191;39.566;2.654;2023-08-08T03:37:56;21.44;68.54
74661;SHT31;63191;39.566;2.654;2023-08-08T03:40:22;21.45;68.77
74661;SHT31;63191;39.566;2.654;2023-08-08T03:42:48;21.47;68.96
74661;SHT31;63191;39.566;2.654;2023-08-08T03:45:13;21.51;69.10
74661;SHT31;63191;39.566;2.654;2023-08-08T03:47:39;21.51;69.10
74661;SHT31;63191;39.566;2.654;2023-08-08T03:50:05;21.51;69.14
74661;SHT31;63191;39.566;2.654;2023-08-08T03:52:33;21.50;69.08
74661;SHT31;63191;39.566;2.654;2023-08-08T03:55:01;21.49;69.08
74661;SHT31;63191;39.566;2.654;2023-08-08T03:57:27;21.49;69.17
74661;SHT31;63191;39.566;2.654;2023-08-08T03:59:52;21.50;69.20
74661;SHT31;63191;39.566;2.654;2023-08-08T04:02:18;21.50;69.20
74661;SHT31;63191;39.566;2.654;2023-08-08T04:04:44;21.49;69.19
74661;SHT31;63191;39.566;2.654;2023-08-08T04:07:09;21.49;69.25
74661;SHT31;63191;39.566;2.654;2023-08-08T04:09:35;21.47;69.32
74661;SHT31;63191;39.566;2.654;2023-08-08T04:12:01;21.45;69.39
74661;SHT31;63191;39.566;2.654;2023-08-08T04:14:27;21.42;69.44
74661;SHT31;63191;39.566;2.654;2023-08-08T04:16:52;21.40;69.50
74661;SHT31;63191;39.566;2.654;2023-08-08T04:19:18;21.37;69.60
74661;SHT31;63191;39.566;2.654;2023-08-08T04:21:44;21.34;69.70
74661;SHT31;63191;39.566;2.654;2023-08-08T04:24:09;21.32;69.73
74661;SHT31;63191;39.566;2.654;2023-08-08T04:26:37;21.30;69.99
74661;SHT31;63191;39.566;2.654;2023-08-08T04:29:02;21.30;70.10
74661;SHT31;63191;39.566;2.654;2023-08-08T04:31:28;21.28;70.19
74661;SHT31;63191;39.566;2.654;2023-08-08T04:33:54;21.26;70.32
74661;SHT31;63191;39.566;2.654;2023-08-08T04:36:25;21.23;70.43
74661;SHT31;63191;39.566;2.654;2023-08-08T04:38:52;21.22;70.51
74661;SHT31;63191;39.566;2.654;2023-08-08T04:41:18;21.19;70.61
74661;SHT31;63191;39.566;2.654;2023-08-08T04:43:44;21.19;70.68
74661;SHT31;63191;39.566;2.654;2023-08-08T04:46:09;21.18;70.89
74661;SHT31;63191;39.566;2.654;2023-08-08T04:48:35;21.20;70.90
74661;SHT31;63191;39.566;2.654;2023-08-08T04:51:04;21.19;70.99
74661;SHT31;63191;39.566;2.654;2023-08-08T04:53:30;21.21;71.08
74661;SHT31;63191;39.566;2.654;2023-08-08T04:55:56;21.20;70.94
74661;SHT31;63191;39.566;2.654;2023-08-08T04:58:21;21.20;70.82
74661;SHT31;63191;39.566;2.654;2023-08-08T05:00:47;21.21;70.77
74661;SHT31;63191;39.566;2.654;2023-08-08T05:03:13;21.22;70.72
74661;SHT31;63191;39.566;2.654;2023-08-08T05:05:39;21.23;70.70
74661;SHT31;63191;39.566;2.654;2023-08-08T05:08:04;21.25;70.70
74661;SHT31;63191;39.566;2.654;2023-08-08T05:10:30;21.28;70.70
74661;SHT31;63191;39.566;2.654;2023-08-08T05:12:56;21.30;70.78
74661;SHT31;63191;39.566;2.654;2023-08-08T05:15:23;21.33;70.79
74661;SHT31;63191;39.566;2.654;2023-08-08T05:17:48;21.36;70.70
74661;SHT31;63191;39.566;2.654;2023-08-08T05:20:14;21.40;70.61
74661;SHT31;63191;39.566;2.654;2023-08-08T05:22:41;21.43;70.57
74661;SHT31;63191;39.566;2.654;2023-08-08T05:25:07;21.49;70.55
74661;SHT31;63191;39.566;2.654;2023-08-08T05:27:33;21.57;70.42
74661;SHT31;63191;39.566;2.654;2023-08-08T05:29:59;21.64;70.31
74661;SHT31;63191;39.566;2.654;2023-08-08T05:32:25;21.72;70.23
74661;SHT31;63191;39.566;2.654;2023-08-08T05:34:51;21.80;70.14
74661;SHT31;63191;39.566;2.654;2023-08-08T05:37:16;21.86;69.96
74661;SHT31;63191;39.566;2.654;2023-08-08T05:39:43;21.90;69.84
74661;SHT31;63191;39.566;2.654;2023-08-08T05:42:10;21.96;69.72
74661;SHT31;63191;39.566;2.654;2023-08-08T05:44:35;22.02;69.65
74661;SHT31;63191;39.566;2.654;2023-08-08T05:47:01;22.08;69.51
74661;SHT31;63191;39.566;2.654;2023-08-08T05:49:27;22.17;69.43
74661;SHT31;63191;39.566;2.654;2023-08-08T05:51:53;22.27;69.32
74661;SHT31;63191;39.566;2.654;2023-08-08T05:54:18;22.39;69.17
74661;SHT31;63191;39.566;2.654;2023-08-08T05:56:44;22.51;68.93
74661;SHT31;63191;39.566;2.654;2023-08-08T05:59:11;22.63;68.70
74661;SHT31;63191;39.566;2.654;2023-08-08T06:01:36;22.76;68.46
74661;SHT31;63191;39.566;2.654;2023-08-08T06:04:02;22.87;68.24
74661;SHT31;63191;39.566;2.654;2023-08-08T06:06:28;22.98;68.02
74661;SHT31;63191;39.566;2.654;2023-08-08T06:08:54;23.11;67.76
74661;SHT31;63191;39.566;2.654;2023-08-08T06:11:20;23.21;67.41
74661;SHT31;63191;39.566;2.654;2023-08-08T06:13:46;23.34;67.03
74661;SHT31;63191;39.566;2.654;2023-08-08T06:16:13;23.44;66.67
74661;SHT31;63191;39.566;2.654;2023-08-08T06:18:41;23.57;66.31
74661;SHT31;63191;39.566;2.654;2023-08-08T06:21:07;23.68;65.97
74661;SHT31;63191;39.566;2.654;2023-08-08T06:23:32;23.80;65.67
74661;SHT31;63191;39.566;2.654;2023-08-08T06:25:58;23.90;65.18
74661;SHT31;63191;39.566;2.654;2023-08-08T06:28:24;24.00;64.82
74661;SHT31;63191;39.566;2.654;2023-08-08T06:30:50;24.11;64.37
74661;SHT31;63191;39.566;2.654;2023-08-08T06:33:16;24.21;64.14
74661;SHT31;63191;39.566;2.654;2023-08-08T06:35:41;24.29;63.85
74661;SHT31;63191;39.566;2.654;2023-08-08T06:38:07;24.41;63.53
74661;SHT31;63191;39.566;2.654;2023-08-08T06:40:34;24.51;63.23
74661;SHT31;63191;39.566;2.654;2023-08-08T06:42:59;24.62;62.99
74661;SHT31;63191;39.566;2.654;2023-08-08T06:45:25;24.75;62.60
74661;SHT31;63191;39.566;2.654;2023-08-08T06:47:51;24.87;62.15
74661;SHT31;63191;39.566;2.654;2023-08-08T06:50:16;24.97;61.79
74661;SHT31;63191;39.566;2.654;2023-08-08T06:52:43;25.10;61.58
74661;SHT31;63191;39.566;2.654;2023-08-08T06:55:09;25.23;60.89
74661;SHT31;63191;39.566;2.654;2023-08-08T06:57:35;25.36;60.41
74661;SHT31;63191;39.566;2.654;2023-08-08T07:00:01;25.48;60.19
74661;SHT31;63191;39.566;2.654;2023-08-08T07:02:30;25.60;59.98
74661;SHT31;63191;39.566;2.654;2023-08-08T07:04:56;25.72;59.71
74661;SHT31;63191;39.566;2.654;2023-08-08T07:07:21;25.84;59.38
74661;SHT31;63191;39.566;2.654;2023-08-08T07:09:48;25.96;58.87
74661;SHT31;63191;39.566;2.654;2023-08-08T07:12:14;26.08;58.58
74661;SHT31;63191;39.566;2.654;2023-08-08T07:14:39;26.18;58.08
74661;SHT31;63191;39.566;2.654;2023-08-08T07:17:05;26.27;57.64
74661;SHT31;63191;39.566;2.654;2023-08-08T07:19:31;26.34;57.62
74661;SHT31;63191;39.566;2.654;2023-08-08T07:21:56;26.46;57.32
74661;SHT31;63191;39.566;2.654;2023-08-08T07:24:22;26.54;56.84
74661;SHT31;63191;39.566;2.654;2023-08-08T07:26:51;26.63;56.46
74661;SHT31;63191;39.566;2.654;2023-08-08T07:29:17;26.71;56.40
74661;SHT31;63191;39.566;2.654;2023-08-08T07:31:43;26.82;55.87
74661;SHT31;63191;39.566;2.654;2023-08-08T07:34:09;26.95;55.42
74661;SHT31;63191;39.566;2.654;2023-08-08T07:36:34;27.05;55.19
74661;SHT31;63191;39.566;2.654;2023-08-08T07:39:00;27.16;54.88
74661;SHT31;63191;39.566;2.654;2023-08-08T07:41:26;27.28;54.73
74661;SHT31;63191;39.566;2.654;2023-08-08T07:43:55;27.40;54.47
74661;SHT31;63191;39.566;2.654;2023-08-08T07:46:20;27.52;54.31
74661;SHT31;63191;39.566;2.654;2023-08-08T07:48:46;27.64;54.10
74661;SHT31;63191;39.566;2.654;2023-08-08T07:51:12;27.76;53.77
74661;SHT31;63191;39.566;2.654;2023-08-08T07:53:38;27.86;53.41
74661;SHT31;63191;39.566;2.654;2023-08-08T07:56:03;27.98;53.22
74661;SHT31;63191;39.566;2.654;2023-08-08T07:58:29;28.08;53.04
74661;SHT31;63191;39.566;2.654;2023-08-08T08:00:57;28.17;52.99
74661;SHT31;63191;39.566;2.654;2023-08-08T08:03:24;28.26;52.56
74661;SHT31;63191;39.566;2.654;2023-08-08T08:05:52;28.34;52.38
74661;SHT31;63191;39.566;2.654;2023-08-08T08:08:18;28.43;52.33
74661;SHT31;63191;39.566;2.654;2023-08-08T08:10:44;28.52;52.07
74661;SHT31;63191;39.566;2.654;2023-08-08T08:13:11;28.60;51.82
74661;SHT31;63191;39.566;2.654;2023-08-08T08:15:37;28.65;51.57
74661;SHT31;63191;39.566;2.654;2023-08-08T08:18:03;28.72;51.43
74661;SHT31;63191;39.566;2.654;2023-08-08T08:20:29;28.77;50.75
74661;SHT31;63191;39.566;2.654;2023-08-08T08:22:55;28.71;50.45
74661;SHT31;63191;39.566;2.654;2023-08-08T08:25:21;28.70;50.74
74661;SHT31;63191;39.566;2.654;2023-08-08T08:27:46;28.74;50.74
74661;SHT31;63191;39.566;2.654;2023-08-08T08:30:12;28.80;50.84
74661;SHT31;63191;39.566;2.654;2023-08-08T08:32:41;28.91;50.77
74661;SHT31;63191;39.566;2.654;2023-08-08T08:35:08;29.00;50.64
74661;SHT31;63191;39.566;2.654;2023-08-08T08:37:35;29.06;50.21
74661;SHT31;63191;39.566;2.654;2023-08-08T08:40:00;29.08;50.01
74661;SHT31;63191;39.566;2.654;2023-08-08T08:42:29;29.10;49.83
74661;SHT31;63191;39.566;2.654;2023-08-08T08:44:58;29.10;49.66
74661;SHT31;63191;39.566;2.654;2023-08-08T08:47:25;29.10;49.67
74661;SHT31;63191;39.566;2.654;2023-08-08T08:49:56;29.11;50.07
74661;SHT31;63191;39.566;2.654;2023-08-08T08:52:25;29.17;49.94
74661;SHT31;63191;39.566;2.654;2023-08-08T08:54:51;29.23;50.00
74661;SHT31;63191;39.566;2.654;2023-08-08T08:57:18;29.35;50.02
74661;SHT31;63191;39.566;2.654;2023-08-08T08:59:49;29.46;49.87
74661;SHT31;63191;39.566;2.654;2023-08-08T09:02:16;29.52;49.39
74661;SHT31;63191;39.566;2.654;2023-08-08T09:04:46;29.59;49.47
74661;SHT31;63191;39.566;2.654;2023-08-08T09:07:12;29.68;49.13
74661;SHT31;63191;39.566;2.654;2023-08-08T09:09:42;29.75;48.99
74661;SHT31;63191;39.566;2.654;2023-08-08T09:12:08;29.82;48.92
74661;SHT31;63191;39.566;2.654;2023-08-08T09:14:34;29.93;48.83
74661;SHT31;63191;39.566;2.654;2023-08-08T09:17:10;30.01;48.43
74661;SHT31;63191;39.566;2.654;2023-08-08T09:19:38;30.08;48.43
74661;SHT31;63191;39.566;2.654;2023-08-08T09:22:04;30.13;48.40
74661;SHT31;63191;39.566;2.654;2023-08-08T09:24:30;30.17;48.29
74661;SHT31;63191;39.566;2.654;2023-08-08T09:26:56;30.23;48.10
74661;SHT31;63191;39.566;2.654;2023-08-08T09:29:22;30.34;48.07
74661;SHT31;63191;39.566;2.654;2023-08-08T09:31:47;30.45;48.21
74661;SHT31;63191;39.566;2.654;2023-08-08T09:34:14;30.57;47.83
74661;SHT31;63191;39.566;2.654;2023-08-08T09:36:40;30.64;47.39
74661;SHT31;63191;39.566;2.654;2023-08-08T09:39:06;30.65;47.07
74661;SHT31;63191;39.566;2.654;2023-08-08T09:41:32;30.68;47.12
74661;SHT31;63191;39.566;2.654;2023-08-08T09:43:58;30.70;46.89
74661;SHT31;63191;39.566;2.654;2023-08-08T09:46:25;30.70;46.88
74661;SHT31;63191;39.566;2.654;2023-08-08T09:48:51;30.72;46.63
74661;SHT31;63191;39.566;2.654;2023-08-08T09:51:18;30.69;46.97
74661;SHT31;63191;39.566;2.654;2023-08-08T09:53:46;30.76;46.85
74661;SHT31;63191;39.566;2.654;2023-08-08T09:56:14;30.77;46.77
74661;SHT31;63191;39.566;2.654;2023-08-08T09:58:41;30.78;47.05
74661;SHT31;63191;39.566;2.654;2023-08-08T10:01:08;30.82;46.94
74661;SHT31;63191;39.566;2.654;2023-08-08T10:03:35;30.83;47.08
74661;SHT31;63191;39.566;2.654;2023-08-08T10:06:03;30.83;47.72
74661;SHT31;63191;39.566;2.654;2023-08-08T10:08:29;30.85;47.62
74661;SHT31;63191;39.566;2.654;2023-08-08T10:10:55;30.81;47.41
74661;SHT31;63191;39.566;2.654;2023-08-08T10:13:22;30.83;47.81
74661;SHT31;63191;39.566;2.654;2023-08-08T10:15:50;30.84;47.57
74661;SHT31;63191;39.566;2.654;2023-08-08T10:18:17;30.79;47.52
74661;SHT31;63191;39.566;2.654;2023-08-08T10:20:49;30.67;48.18
74661;SHT31;63191;39.566;2.654;2023-08-08T10:23:17;30.61;48.49
74661;SHT31;63191;39.566;2.654;2023-08-08T10:25:44;30.67;48.21
74661;SHT31;63191;39.566;2.654;2023-08-08T10:28:17;30.74;48.06
74661;SHT31;63191;39.566;2.654;2023-08-08T10:30:46;30.72;47.96
74661;SHT31;63191;39.566;2.654;2023-08-08T10:33:20;30.74;48.18
74661;SHT31;63191;39.566;2.654;2023-08-08T10:36:04;30.83;47.83
74661;SHT31;63191;39.566;2.654;2023-08-08T10:39:05;30.90;47.74
74661;SHT31;63191;39.566;2.654;2023-08-08T10:41:25;30.85;47.74
74661;SHT31;63191;39.566;2.654;2023-08-08T10:43:53;30.84;47.77
74661;SHT31;63191;39.566;2.654;2023-08-08T10:46:23;30.88;48.01
74661;SHT31;63191;39.566;2.654;2023-08-08T10:48:54;30.82;48.48
74661;SHT31;63191;39.566;2.654;2023-08-08T10:52:02;30.79;49.43
74661;SHT31;63191;39.566;2.654;2023-08-08T10:54:24;30.83;49.19
74661;SHT31;63191;39.566;2.654;2023-08-08T10:56:56;30.84;49.00
74661;SHT31;63191;39.566;2.654;2023-08-08T10:59:25;30.78;49.11
74661;SHT31;63191;39.566;2.654;2023-08-08T11:01:54;30.74;49.54
74661;SHT31;63191;39.566;2.654;2023-08-08T11:04:22;30.70;49.83
74661;SHT31;63191;39.566;2.654;2023-08-08T11:06:52;30.71;49.60
74661;SHT31;63191;39.566;2.654;2023-08-08T11:09:19;30.75;49.67
74661;SHT31;63191;39.566;2.654;2023-08-08T11:11:45;30.78;49.36
74661;SHT31;63191;39.566;2.654;2023-08-08T11:16:41;30.88;49.85
74661;SHT31;63191;39.566;2.654;2023-08-08T11:19:09;30.89;49.59
74661;SHT31;63191;39.566;2.654;2023-08-08T11:21:39;30.92;49.96
74661;SHT31;63191;39.566;2.654;2023-08-08T11:24:07;30.96;50.22
74661;SHT31;63191;39.566;2.654;2023-08-08T11:26:35;30.97;50.01
74661;SHT31;63191;39.566;2.654;2023-08-08T11:29:03;31.01;49.97
74661;SHT31;63191;39.566;2.654;2023-08-08T11:31:30;31.09;50.08
74661;SHT31;63191;39.566;2.654;2023-08-08T11:33:58;31.14;50.16
74661;SHT31;63191;39.566;2.654;2023-08-08T11:36:25;31.17;49.89
74661;SHT31;63191;39.566;2.654;2023-08-08T11:38:55;31.24;49.61
74661;SHT31;63191;39.566;2.654;2023-08-08T11:41:23;31.27;49.15
74661;SHT31;63191;39.566;2.654;2023-08-08T11:43:50;31.28;49.26
74661;SHT31;63191;39.566;2.654;2023-08-08T11:46:16;31.28;49.11
74661;SHT31;63191;39.566;2.654;2023-08-08T11:48:43;31.40;49.62
74661;SHT31;63191;39.566;2.654;2023-08-08T11:51:13;31.49;49.60
74661;SHT31;63191;39.566;2.654;2023-08-08T11:53:48;31.55;49.14
74661;SHT31;63191;39.566;2.654;2023-08-08T11:56:16;31.66;49.59
74661;SHT31;63191;39.566;2.654;2023-08-08T11:58:44;31.74;49.67
74661;SHT31;63191;39.566;2.654;2023-08-08T12:01:10;31.83;49.15
74661;SHT31;63191;39.566;2.654;2023-08-08T12:03:39;31.99;48.53
74661;SHT31;63191;39.566;2.654;2023-08-08T12:06:14;32.22;48.90
74661;SHT31;63191;39.566;2.654;2023-08-08T12:08:45;32.52;47.51
74661;SHT31;63191;39.566;2.654;2023-08-08T12:11:13;33.00;46.61
74661;SHT31;63191;39.566;2.654;2023-08-08T12:13:41;33.70;45.65
74661;SHT31;63191;39.566;2.654;2023-08-08T12:16:12;34.53;44.01
74661;SHT31;63191;39.566;2.654;2023-08-08T12:18:40;35.54;43.06
74661;SHT31;63191;39.566;2.654;2023-08-08T12:21:06;36.75;39.60
74661;SHT31;63191;39.566;2.654;2023-08-08T12:23:34;37.91;37.14
74661;SHT31;63191;39.566;2.654;2023-08-08T12:26:02;39.00;35.83
74661;SHT31;63191;39.566;2.654;2023-08-08T12:28:32;40.03;34.05
74661;SHT31;63191;39.566;2.654;2023-08-08T12:30:58;40.92;32.77
74661;SHT31;63191;39.566;2.654;2023-08-08T12:33:25;41.62;31.56
74661;SHT31;63191;39.566;2.654;2023-08-08T12:35:50;42.16;30.28
74661;SHT31;63191;39.566;2.654;2023-08-08T12:38:16;42.80;29.37
74661;SHT31;63191;39.566;2.654;2023-08-08T12:40:42;43.28;28.28
74661;SHT31;63191;39.566;2.654;2023-08-08T12:43:09;43.76;28.46
74661;SHT31;63191;39.566;2.654;2023-08-08T12:45:42;44.32;27.35
74661;SHT31;63191;39.566;2.654;2023-08-08T12:48:10;44.88;26.00
74661;SHT31;63191;39.566;2.654;2023-08-08T12:50:37;45.19;24.94
74661;SHT31;63191;39.566;2.654;2023-08-08T12:53:03;45.63;25.68
74661;SHT31;63191;39.566;2.654;2023-08-08T12:55:29;46.08;24.79
74661;SHT31;63191;39.566;2.654;2023-08-08T12:57:56;46.50;25.01
74661;SHT31;63191;39.566;2.654;2023-08-08T13:00:21;46.92;25.14
74661;SHT31;63191;39.566;2.654;2023-08-08T13:02:48;47.23;23.93
74661;SHT31;63191;39.566;2.654;2023-08-08T13:05:14;47.39;23.04
74661;SHT31;63191;39.566;2.654;2023-08-08T13:07:40;47.41;23.50
74661;SHT31;63191;39.566;2.654;2023-08-08T13:10:06;47.68;23.51
74661;SHT31;63191;39.566;2.654;2023-08-08T13:12:33;48.07;23.05
74661;SHT31;63191;39.566;2.654;2023-08-08T13:14:58;48.49;23.01
74661;SHT31;63191;39.566;2.654;2023-08-08T13:17:24;48.61;22.06
74661;SHT31;63191;39.566;2.654;2023-08-08T13:19:50;48.59;21.96
74661;SHT31;63191;39.566;2.654;2023-08-08T13:22:16;48.87;22.55
74661;SHT31;63191;39.566;2.654;2023-08-08T13:24:41;49.17;22.19
74661;SHT31;63191;39.566;2.654;2023-08-08T13:27:07;49.23;21.83
74661;SHT31;63191;39.566;2.654;2023-08-08T13:29:33;49.35;21.53
74661;SHT31;63191;39.566;2.654;2023-08-08T13:31:59;49.47;21.47
74661;SHT31;63191;39.566;2.654;2023-08-08T13:34:24;49.43;21.27
74661;SHT31;63191;39.566;2.654;2023-08-08T13:36:50;49.37;22.12
74661;SHT31;63191;39.566;2.654;2023-08-08T13:39:16;49.16;21.74
74661;SHT31;63191;39.566;2.654;2023-08-08T13:41:41;49.18;22.05
74661;SHT31;63191;39.566;2.654;2023-08-08T13:44:07;49.48;21.82
74661;SHT31;63191;39.566;2.654;2023-08-08T13:46:33;49.53;21.49
74661;SHT31;63191;39.566;2.654;2023-08-08T13:48:58;49.38;21.66
74661;SHT31;63191;39.566;2.654;2023-08-08T13:51:24;49.19;21.79
74661;SHT31;63191;39.566;2.654;2023-08-08T13:53:50;49.12;21.77
74661;SHT31;63191;39.566;2.654;2023-08-08T13:56:15;49.04;21.94
74661;SHT31;63191;39.566;2.654;2023-08-08T13:58:42;48.86;21.96
74661;SHT31;63191;39.566;2.654;2023-08-08T14:01:08;48.76;22.47
74661;SHT31;63191;39.566;2.654;2023-08-08T14:03:33;48.74;22.25
74661;SHT31;63191;39.566;2.654;2023-08-08T14:05:59;48.78;21.91
74661;SHT31;63191;39.566;2.654;2023-08-08T14:08:25;48.77;22.13
74661;SHT31;63191;39.566;2.654;2023-08-08T14:10:50;48.81;21.89
74661;SHT31;63191;39.566;2.654;2023-08-08T14:13:16;49.00;21.72
74661;SHT31;63191;39.566;2.654;2023-08-08T14:15:44;48.85;21.85
74661;SHT31;63191;39.566;2.654;2023-08-08T14:18:10;48.88;22.27
74661;SHT31;63191;39.566;2.654;2023-08-08T14:20:36;49.10;21.79
74661;SHT31;63191;39.566;2.654;2023-08-08T14:23:03;49.31;21.50
74661;SHT31;63191;39.566;2.654;2023-08-08T14:25:29;49.55;21.12
74661;SHT31;63191;39.566;2.654;2023-08-08T14:27:54;49.68;20.80
74661;SHT31;63191;39.566;2.654;2023-08-08T14:30:22;49.47;21.38
74661;SHT31;63191;39.566;2.654;2023-08-08T14:32:51;49.31;21.63
74661;SHT31;63191;39.566;2.654;2023-08-08T14:35:17;49.14;21.82
74661;SHT31;63191;39.566;2.654;2023-08-08T14:37:42;48.78;22.22
74661;SHT31;63191;39.566;2.654;2023-08-08T14:40:09;48.54;22.73
74661;SHT31;63191;39.566;2.654;2023-08-08T14:42:35;48.40;22.69
74661;SHT31;63191;39.566;2.654;2023-08-08T14:45:01;48.38;22.61
74661;SHT31;63191;39.566;2.654;2023-08-08T14:47:27;48.31;22.14
74661;SHT31;63191;39.566;2.654;2023-08-08T14:49:53;48.32;22.54
74661;SHT31;63191;39.566;2.654;2023-08-08T14:52:18;48.24;22.29
74661;SHT31;63191;39.566;2.654;2023-08-08T14:54:44;48.17;22.52
74661;SHT31;63191;39.566;2.654;2023-08-08T14:57:10;48.28;22.62
74661;SHT31;63191;39.566;2.654;2023-08-08T14:59:36;48.28;22.52
74661;SHT31;63191;39.566;2.654;2023-08-08T15:02:01;48.07;22.62
74661;SHT31;63191;39.566;2.654;2023-08-08T15:04:27;47.84;22.93
74661;SHT31;63191;39.566;2.654;2023-08-08T15:06:53;47.90;22.91
74661;SHT31;63191;39.566;2.654;2023-08-08T15:09:19;48.14;22.82
74661;SHT31;63191;39.566;2.654;2023-08-08T15:11:44;48.25;23.23
74661;SHT31;63191;39.566;2.654;2023-08-08T15:14:10;48.12;23.02
74661;SHT31;63191;39.566;2.654;2023-08-08T15:16:36;48.00;23.27
74661;SHT31;63191;39.566;2.654;2023-08-08T15:19:02;47.98;23.29
74661;SHT31;63191;39.566;2.654;2023-08-08T15:21:28;47.95;23.57
74661;SHT31;63191;39.566;2.654;2023-08-08T15:23:53;48.11;23.73
74661;SHT31;63191;39.566;2.654;2023-08-08T15:26:19;48.09;22.82
74661;SHT31;63191;39.566;2.654;2023-08-08T15:28:47;47.87;23.14
74661;SHT31;63191;39.566;2.654;2023-08-08T15:31:13;47.71;23.55